Time;durP1;ratioP1;P1;durP2;ratioP2;P2;SDS_P1;SDS_P2;PMS_P1;PMS_P2;Temp;Humidity;BMP_temperature;BMP_pressure;BME280_temperature;BME280_humidity;BME280_pressure;Samples;Min_cycle;Max_cycle;Signal;HPM_P1;HPM_P2
2022/01/17 00:00:36;;;;;;;15.18;11.20;;;;;;;3.11;77.12;97958.34;5019608;28;20050;-84
2022/01/17 00:03:04;;;;;;;14.30;10.60;;;;;;;3.11;76.38;97955.78;5018763;28;20408;-82
2022/01/17 00:05:31;;;;;;;15.43;10.02;;;;;;;3.12;75.42;97946.28;5017497;28;20058;-82
2022/01/17 00:07:59;;;;;;;14.85;10.43;;;;;;;3.11;75.12;97940.31;5017138;28;20065;-80
2022/01/17 00:10:26;;;;;;;13.23;10.18;;;;;;;3.11;76.20;97932.56;5018612;28;20058;-79
2022/01/17 00:12:58;;;;;;;13.25;9.07;;;;;;;3.11;76.25;97930.00;5018124;28;20057;-79
2022/01/17 00:15:30;;;;;;;12.73;8.23;;;;;;;3.09;75.09;97919.78;5018666;28;20046;-79
2022/01/17 00:18:22;;;;;;;13.98;9.38;;;;;;;3.11;75.70;97922.25;5017602;28;20046;-84
2022/01/17 00:20:47;;;;;;;13.40;9.43;;;;;;;3.13;76.13;97937.59;5017587;28;20536;-80
2022/01/17 00:23:15;;;;;;;13.23;9.55;;;;;;;3.13;76.98;97938.44;5019136;28;20069;-83
2022/01/17 00:25:43;;;;;;;11.77;8.68;;;;;;;3.13;76.15;97964.22;5021094;28;20064;-84
2022/01/17 00:28:12;;;;;;;11.18;8.48;;;;;;;3.15;76.36;97998.47;5019548;28;20050;-81
2022/01/17 00:30:40;;;;;;;10.90;8.30;;;;;;;3.15;74.89;97977.00;5019745;28;20060;-84
2022/01/17 00:33:07;;;;;;;12.65;9.13;;;;;;;3.15;75.38;97974.41;5020708;28;20045;-83
2022/01/17 00:35:35;;;;;;;12.52;9.60;;;;;;;3.16;75.45;97969.16;5019931;28;20046;-81
2022/01/17 00:38:07;;;;;;;14.23;10.00;;;;;;;3.16;74.64;97981.25;5019562;28;20049;-82
2022/01/17 00:40:35;;;;;;;15.50;11.55;;;;;;;3.18;74.94;97987.13;5022895;28;20065;-82
2022/01/17 00:43:03;;;;;;;15.30;10.30;;;;;;;3.18;75.74;97976.81;5022159;28;20429;-82
2022/01/17 00:45:32;;;;;;;19.40;12.00;;;;;;;3.19;76.30;97983.59;5022347;28;20068;-80
2022/01/17 00:48:00;;;;;;;17.23;11.23;;;;;;;3.14;75.79;97986.50;5021129;28;20061;-81
2022/01/17 00:50:31;;;;;;;15.45;10.80;;;;;;;3.11;74.74;97989.28;5022283;28;20050;-86
2022/01/17 00:53:02;;;;;;;16.50;11.20;;;;;;;3.03;74.21;97999.28;5022103;28;20046;-84
2022/01/17 00:55:30;;;;;;;16.55;11.77;;;;;;;3.00;73.92;97996.91;5021203;28;20065;-83
2022/01/17 00:57:58;;;;;;;16.13;11.63;;;;;;;2.94;73.82;98005.03;5021292;28;20060;-82
2022/01/17 01:00:25;;;;;;;17.88;11.23;;;;;;;2.88;73.17;97991.59;5021379;28;20126;-82
2022/01/17 01:02:55;;;;;;;18.38;11.77;;;;;;;2.84;73.48;97997.91;5021642;28;20053;-81
2022/01/17 01:05:22;;;;;;;15.27;11.38;;;;;;;2.85;74.64;97991.81;5021046;28;20424;-84
2022/01/17 01:07:53;;;;;;;17.27;11.88;;;;;;;2.86;73.92;97988.31;5020111;28;20054;-81
2022/01/17 01:10:22;;;;;;;17.00;12.23;;;;;;;2.89;75.40;97987.28;5020792;28;20503;-81
2022/01/17 01:12:51;;;;;;;17.30;11.52;;;;;;;2.92;75.24;97994.81;5020970;28;20060;-81
2022/01/17 01:15:22;;;;;;;18.23;12.38;;;;;;;2.97;75.68;97999.66;5019838;28;20050;-78
2022/01/17 01:17:52;;;;;;;17.00;11.98;;;;;;;3.02;76.39;98007.94;5020688;28;20057;-80
2022/01/17 01:20:59;;;;;;;16.60;12.00;;;;;;;3.08;76.63;98007.53;5020948;28;20041;-81
2022/01/17 01:28:49;;;;;;;19.30;12.30;;;;;;;3.20;76.45;98006.72;5020636;28;20431;-82
2022/01/17 01:31:22;;;;;;;18.50;11.82;;;;;;;3.19;75.61;98005.09;5021780;28;20460;-80
2022/01/17 01:33:54;;;;;;;15.45;11.40;;;;;;;3.19;74.91;98001.66;5023318;28;20405;-82
2022/01/17 01:36:27;;;;;;;17.15;10.98;;;;;;;3.17;74.39;98009.50;5023452;28;20057;-82
2022/01/17 01:38:54;;;;;;;18.33;12.85;;;;;;;3.18;75.92;98002.59;5022762;28;20050;-82
2022/01/17 01:41:22;;;;;;;16.45;12.57;;;;;;;3.21;75.69;97987.72;5023166;28;20057;-82
2022/01/17 01:43:50;;;;;;;20.50;13.50;;;;;;;3.22;76.43;97999.72;5022676;28;20041;-84
2022/01/17 01:46:19;;;;;;;18.67;13.32;;;;;;;3.23;76.39;97996.19;5021864;28;20069;-81
2022/01/17 01:48:48;;;;;;;18.92;12.20;;;;;;;3.24;76.43;98000.44;5021184;28;20495;-80
2022/01/17 01:51:16;;;;;;;18.25;11.80;;;;;;;3.26;76.37;97993.44;5021344;28;20132;-79
2022/01/17 01:53:45;;;;;;;17.42;12.20;;;;;;;3.25;75.82;97990.94;5021132;28;20046;-83
2022/01/17 01:56:12;;;;;;;17.48;12.65;;;;;;;3.23;74.94;97985.88;5020846;28;20053;-80
2022/01/17 01:58:41;;;;;;;16.65;11.60;;;;;;;3.22;75.88;97984.25;5020352;28;20057;-79
2022/01/17 02:01:08;;;;;;;16.17;11.20;;;;;;;3.20;74.91;97987.84;5021504;28;20050;-86
2022/01/17 02:03:36;;;;;;;17.00;11.82;;;;;;;3.17;75.43;97988.88;5023697;28;20584;-82
2022/01/17 02:06:04;;;;;;;15.68;11.05;;;;;;;3.17;75.60;97991.47;5022056;28;20050;-81
2022/01/17 02:08:32;;;;;;;17.17;11.65;;;;;;;3.17;75.22;97986.31;5022776;28;20081;-83
2022/01/17 02:11:01;;;;;;;17.02;11.40;;;;;;;3.18;75.62;97982.78;5022909;28;20050;-84
2022/01/17 02:13:28;;;;;;;16.52;11.77;;;;;;;3.19;76.11;97981.88;5069673;22;20438;-74
2022/01/17 02:16:01;;;;;;;19.70;12.35;;;;;;;3.18;75.71;97975.06;5053081;28;20049;-73
2022/01/17 02:18:31;;;;;;;19.83;13.48;;;;;;;3.17;75.17;97975.16;5053239;28;20132;-74
2022/01/17 02:21:12;;;;;;;17.60;12.27;;;;;;;3.16;75.09;97976.09;5053574;28;20053;-73
2022/01/17 02:23:41;;;;;;;18.55;12.65;;;;;;;3.12;75.46;97987.53;5053338;28;20056;-73
2022/01/17 02:26:09;;;;;;;18.83;12.60;;;;;;;3.08;74.83;97992.03;5052689;28;20053;-74
2022/01/17 02:28:37;;;;;;;18.77;12.90;;;;;;;3.06;74.86;98001.63;5053221;28;20132;-74
2022/01/17 02:31:05;;;;;;;17.75;13.18;;;;;;;3.02;75.37;97998.44;5052801;28;20529;-74
2022/01/17 02:33:34;;;;;;;18.70;13.10;;;;;;;3.02;75.06;98001.03;5052867;28;20044;-72
2022/01/17 02:36:04;;;;;;;19.10;13.75;;;;;;;3.03;75.14;98007.81;5052552;28;20502;-75
2022/01/17 02:38:32;;;;;;;19.35;13.73;;;;;;;3.03;75.70;98007.81;5052965;28;20045;-73
2022/01/17 02:40:59;;;;;;;20.08;14.65;;;;;;;3.01;75.55;98004.50;5053360;28;20458;-73
2022/01/17 02:43:27;;;;;;;21.13;14.38;;;;;;;3.00;75.40;98004.63;5052962;28;20052;-73
2022/01/17 02:48:41;;;;;;;21.15;14.63;;;;;;;2.99;75.44;98003.78;5052697;28;20045;-73
2022/01/17 02:51:11;;;;;;;20.05;14.38;;;;;;;3.00;75.91;98005.44;5052476;28;20057;-73
2022/01/17 02:53:40;;;;;;;22.08;14.88;;;;;;;3.02;77.10;98018.25;5052505;28;20441;-73
2022/01/17 02:56:09;;;;;;;20.83;14.93;;;;;;;3.03;77.10;98014.72;5052287;28;20049;-74
2022/01/17 02:58:38;;;;;;;20.85;14.77;;;;;;;3.04;77.04;98019.81;5052565;28;20045;-73
2022/01/17 03:01:08;;;;;;;21.33;14.90;;;;;;;3.06;77.13;98023.09;5051632;28;20498;-73
2022/01/17 03:03:37;;;;;;;21.05;13.88;;;;;;;3.08;76.81;98023.00;5052412;28;20098;-73
2022/01/17 03:06:05;;;;;;;23.98;15.43;;;;;;;3.08;77.31;98017.84;5052152;28;20064;-74
2022/01/17 03:08:35;;;;;;;26.70;17.50;;;;;;;3.09;77.88;98019.50;5052522;28;20469;-73
2022/01/17 03:11:05;;;;;;;26.20;16.15;;;;;;;3.09;77.62;98014.34;5052422;28;20056;-74
2022/01/17 03:13:37;;;;;;;25.27;17.67;;;;;;;3.08;77.78;98017.84;5052615;28;20059;-74
2022/01/17 03:16:09;;;;;;;24.48;17.27;;;;;;;3.06;77.77;98009.38;5051803;28;20049;-73
2022/01/17 03:18:40;;;;;;;25.58;18.17;;;;;;;3.05;77.96;98002.56;5052213;28;20053;-73
2022/01/17 03:21:09;;;;;;;29.88;17.38;;;;;;;3.06;77.98;97996.47;5052422;28;20431;-74
2022/01/17 03:23:39;;;;;;;25.75;17.02;;;;;;;3.05;78.23;97992.25;5052145;28;20045;-74
2022/01/17 03:26:07;;;;;;;24.27;16.13;;;;;;;3.07;78.01;97990.41;5051919;28;20053;-73
2022/01/17 03:28:36;;;;;;;25.88;16.40;;;;;;;3.04;76.96;97986.28;5051907;28;20053;-73
2022/01/17 03:31:04;;;;;;;27.27;17.52;;;;;;;3.03;77.53;97999.28;5052156;28;20049;-74
2022/01/17 03:33:32;;;;;;;26.38;17.55;;;;;;;3.00;77.35;97978.84;5052133;28;20081;-75
2022/01/17 03:36:00;;;;;;;26.85;18.08;;;;;;;3.01;77.43;97970.19;5052139;28;20051;-73
2022/01/17 03:38:30;;;;;;;28.65;18.20;;;;;;;3.00;77.66;97978.84;5052170;28;20056;-74
2022/01/17 03:41:01;;;;;;;28.83;18.00;;;;;;;2.99;77.89;97983.16;5052621;28;20052;-73
2022/01/17 03:43:30;;;;;;;30.30;19.17;;;;;;;2.98;77.27;97994.41;5052454;28;20530;-75
2022/01/17 03:45:58;;;;;;;28.35;18.02;;;;;;;2.96;77.09;98004.00;5052656;28;20119;-73
2022/01/17 03:48:27;;;;;;;26.00;17.63;;;;;;;2.92;76.85;97994.00;5052516;28;20057;-76
2022/01/17 03:50:56;;;;;;;27.25;17.88;;;;;;;2.89;77.29;97995.84;5052195;28;20049;-74
2022/01/17 03:53:24;;;;;;;29.67;18.60;;;;;;;2.92;77.92;97996.56;5051549;28;20049;-73
2022/01/17 03:55:52;;;;;;;27.95;18.08;;;;;;;2.94;78.01;98000.69;5051802;28;20529;-73
2022/01/17 03:58:25;;;;;;;28.85;18.83;;;;;;;2.92;77.71;98009.44;5051571;28;20564;-74
2022/01/17 04:00:55;;;;;;;30.73;20.08;;;;;;;2.92;77.87;98001.72;5051994;28;20053;-73
2022/01/17 04:03:23;;;;;;;29.55;19.35;;;;;;;2.92;77.71;98009.44;5051721;28;20053;-73
2022/01/17 04:05:51;;;;;;;28.50;18.15;;;;;;;2.89;77.27;98013.06;5051273;28;20128;-73
2022/01/17 04:08:18;;;;;;;29.27;19.33;;;;;;;2.87;77.84;98009.75;5051552;28;20049;-76
2022/01/17 04:10:46;;;;;;;26.10;18.63;;;;;;;2.87;78.01;98015.72;5051741;28;20525;-73
2022/01/17 04:13:13;;;;;;;31.35;20.20;;;;;;;2.89;78.52;98006.16;5053174;28;20168;-74
2022/01/17 04:15:42;;;;;;;29.98;19.65;;;;;;;2.91;78.36;97989.75;5055527;28;20045;-75
2022/01/17 04:18:11;;;;;;;26.95;18.30;;;;;;;2.93;78.57;97998.19;5055186;28;20052;-73
2022/01/17 04:20:41;;;;;;;31.30;19.70;;;;;;;2.96;78.61;97987.72;5055518;28;20453;-74
2022/01/17 04:23:11;;;;;;;30.65;19.70;;;;;;;2.97;78.91;97985.00;5055028;28;20495;-73
2022/01/17 04:25:41;;;;;;;29.13;19.25;;;;;;;2.97;78.99;97977.28;5055313;28;20085;-75
2022/01/17 04:28:09;;;;;;;28.85;18.55;;;;;;;2.97;78.73;97981.63;5055010;28;20060;-73
2022/01/17 04:30:37;;;;;;;28.45;19.25;;;;;;;2.95;78.30;97976.59;5055187;28;20053;-74
2022/01/17 04:33:07;;;;;;;27.45;17.35;;;;;;;2.94;77.50;97974.91;5054901;28;20489;-73
2022/01/17 04:35:36;;;;;;;26.50;17.08;;;;;;;2.91;77.19;97984.59;5055524;28;20049;-74
2022/01/17 04:38:06;;;;;;;28.45;18.95;;;;;;;2.88;77.46;97989.00;5054998;28;20059;-74
2022/01/17 04:40:36;;;;;;;25.58;18.05;;;;;;;2.91;77.92;97979.44;5055370;28;20056;-78
2022/01/17 04:43:12;;;;;;;31.08;18.65;;;;;;;2.93;78.39;97990.47;5055084;28;20049;-73
2022/01/17 04:45:40;;;;;;;27.77;17.95;;;;;;;2.93;78.48;97988.75;5054561;28;20045;-73
2022/01/17 04:48:09;;;;;;;26.55;17.42;;;;;;;2.94;78.48;97994.72;5054678;28;20044;-73
2022/01/17 04:50:37;;;;;;;26.08;16.63;;;;;;;2.94;77.92;98005.84;5055069;28;20063;-74
2022/01/17 04:53:06;;;;;;;25.67;16.15;;;;;;;2.90;77.66;98014.69;5054623;28;20056;-73
2022/01/17 04:55:36;;;;;;;26.25;17.58;;;;;;;2.89;77.38;98007.91;5054650;28;20469;-75
2022/01/17 04:58:04;;;;;;;24.83;17.33;;;;;;;2.88;77.86;98012.22;5054365;28;20418;-73
2022/01/17 05:00:31;;;;;;;27.05;18.08;;;;;;;2.89;78.10;98002.75;5054831;28;20049;-75
2022/01/17 05:02:59;;;;;;;27.90;17.50;;;;;;;2.87;77.33;98015.72;5054625;28;20057;-74
2022/01/17 05:05:28;;;;;;;26.65;17.25;;;;;;;2.83;76.93;98009.13;5054366;28;20045;-73
2022/01/17 05:07:55;;;;;;;32.00;19.30;;;;;;;2.82;77.38;97998.91;5054098;28;20056;-73
2022/01/17 05:10:23;;;;;;;27.65;17.83;;;;;;;2.83;78.07;97983.34;5054489;28;20051;-73
2022/01/17 05:12:52;;;;;;;24.40;16.60;;;;;;;2.83;77.58;97988.50;5054101;28;20067;-73
2022/01/17 05:15:29;;;;;;;25.08;16.05;;;;;;;2.82;77.11;97983.44;5054393;28;20049;-73
2022/01/17 05:18:01;;;;;;;23.90;16.42;;;;;;;2.79;77.29;97981.06;5054023;28;20045;-74
2022/01/17 05:20:30;;;;;;;26.60;17.42;;;;;;;2.77;77.46;97981.16;5054485;28;20060;-74
2022/01/17 05:22:58;;;;;;;23.42;16.40;;;;;;;2.75;77.60;97983.00;5054165;28;20049;-73
2022/01/17 05:25:25;;;;;;;23.35;16.50;;;;;;;2.76;77.44;97983.84;5053450;28;20045;-73
2022/01/17 05:27:53;;;;;;;22.60;15.32;;;;;;;2.77;77.40;97982.91;5054006;28;20063;-74
2022/01/17 05:30:22;;;;;;;22.10;15.02;;;;;;;2.78;77.10;97985.41;5054391;28;20049;-73
2022/01/17 05:32:51;;;;;;;22.33;14.70;;;;;;;2.78;76.68;98003.44;5054266;28;20049;-73
2022/01/17 05:35:19;;;;;;;22.45;14.30;;;;;;;2.76;76.81;98005.28;5054101;28;20049;-73
2022/01/17 05:37:48;;;;;;;22.65;14.77;;;;;;;2.76;76.90;98010.44;5053711;28;20053;-73
2022/01/17 05:40:17;;;;;;;22.13;15.23;;;;;;;2.75;77.30;98015.69;5054008;28;20049;-75
2022/01/17 05:42:45;;;;;;;23.30;15.63;;;;;;;2.74;76.96;98021.78;5054085;28;20087;-74
2022/01/17 05:45:14;;;;;;;27.70;18.10;;;;;;;2.71;77.48;98020.19;5053568;28;20056;-73
2022/01/17 05:47:42;;;;;;;26.55;17.13;;;;;;;2.72;77.87;98021.88;5053311;28;20502;-74
2022/01/17 05:50:10;;;;;;;27.67;16.73;;;;;;;2.71;77.46;98025.34;5053673;28;20049;-74
2022/01/17 05:52:38;;;;;;;25.35;15.30;;;;;;;2.71;77.54;98020.19;5052486;28;20064;-75
2022/01/17 05:55:09;;;;;;;28.73;16.15;;;;;;;2.71;77.84;98007.31;5053915;28;20053;-76
2022/01/17 05:57:37;;;;;;;26.58;16.90;;;;;;;2.72;77.93;98011.56;5053996;28;20041;-75
2022/01/17 06:00:06;;;;;;;44.33;25.08;;;;;;;2.75;77.90;98015.69;5053406;28;20068;-75
2022/01/17 06:02:34;;;;;;;30.27;18.00;;;;;;;2.76;77.81;98004.47;5053227;28;20282;-75
2022/01/17 06:05:01;;;;;;;25.60;16.70;;;;;;;2.75;77.69;98002.78;5053206;28;20356;-75
2022/01/17 06:07:29;;;;;;;29.38;16.80;;;;;;;2.73;77.38;98008.03;5053237;28;20076;-76
2022/01/17 06:09:57;;;;;;;24.58;16.70;;;;;;;2.74;77.97;98014.03;5053187;28;20053;-74
2022/01/17 06:12:26;;;;;;;27.10;17.48;;;;;;;2.72;77.22;98021.88;5052983;28;20057;-75
2022/01/17 06:14:53;;;;;;;28.25;18.13;;;;;;;2.71;77.44;98024.53;5053171;28;20049;-75
2022/01/17 06:17:21;;;;;;;28.08;16.90;;;;;;;2.71;77.90;98025.34;5052537;28;20392;-75
2022/01/17 06:19:48;;;;;;;28.58;17.30;;;;;;;2.72;77.96;98021.03;5053324;28;20064;-75
2022/01/17 06:22:16;;;;;;;26.77;17.20;;;;;;;2.72;78.03;98021.88;5053059;28;20053;-75
2022/01/17 06:24:44;;;;;;;29.38;18.20;;;;;;;2.72;77.82;98027.00;5053184;28;20123;-75
2022/01/17 06:27:12;;;;;;;27.52;18.42;;;;;;;2.71;77.59;98025.34;5052540;28;20045;-77
2022/01/17 06:29:41;;;;;;;28.60;18.67;;;;;;;2.68;78.27;98033.28;5052590;28;20060;-78
2022/01/17 06:32:08;;;;;;;27.27;18.55;;;;;;;2.68;78.02;98031.53;5052324;28;20052;-76
2022/01/17 06:34:53;;;;;;;29.63;18.40;;;;;;;2.68;78.39;98041.84;5051450;28;20057;-76
2022/01/17 06:37:20;;;;;;;29.33;18.45;;;;;;;2.68;78.38;98038.44;5050125;28;20454;-77
2022/01/17 06:39:50;;;;;;;28.55;18.35;;;;;;;2.67;77.76;98047.09;5051204;28;20071;-75
2022/01/17 06:42:17;;;;;;;31.70;18.83;;;;;;;2.65;77.93;98051.53;5050695;28;20049;-76
2022/01/17 06:44:47;;;;;;;29.95;18.75;;;;;;;2.63;78.83;98056.75;5050887;28;20083;-75
2022/01/17 06:47:14;;;;;;;31.33;19.05;;;;;;;2.60;78.58;98074.16;5051314;28;20487;-77
2022/01/17 06:49:42;;;;;;;32.40;19.40;;;;;;;2.59;79.03;98087.97;5053007;28;20049;-78
2022/01/17 06:52:09;;;;;;;32.55;19.95;;;;;;;2.60;79.30;98085.31;5053169;28;20049;-75
2022/01/17 06:54:37;;;;;;;33.42;19.67;;;;;;;2.59;79.36;98082.81;5052786;28;20056;-76
2022/01/17 06:57:05;;;;;;;32.40;19.00;;;;;;;2.57;78.85;98093.19;5052814;28;20422;-78
2022/01/17 06:59:32;;;;;;;32.70;19.83;;;;;;;2.55;78.51;98087.31;5052748;28;20060;-76
2022/01/17 07:02:01;;;;;;;28.23;18.70;;;;;;;2.58;79.38;98081.16;5052332;28;20421;-75
2022/01/17 07:04:28;;;;;;;29.15;17.67;;;;;;;2.59;79.66;98078.47;5052331;28;20045;-77
2022/01/17 07:06:56;;;;;;;30.08;18.75;;;;;;;2.60;79.74;98079.31;5052304;28;20049;-76
2022/01/17 07:09:23;;;;;;;32.78;19.75;;;;;;;2.59;79.36;98075.09;5052487;28;20045;-75
2022/01/17 07:11:51;;;;;;;30.83;18.25;;;;;;;2.59;79.53;98069.94;5052533;28;20080;-76
2022/01/17 07:14:19;;;;;;;31.88;18.85;;;;;;;2.58;79.86;98071.69;5052613;28;20056;-77
2022/01/17 07:16:46;;;;;;;29.60;18.25;;;;;;;2.60;79.80;98079.31;5052359;28;20056;-76
2022/01/17 07:19:15;;;;;;;28.88;18.13;;;;;;;2.60;80.08;98074.16;5052443;28;20044;-75
2022/01/17 07:21:42;;;;;;;22.75;15.60;;;;;;;2.61;79.91;98088.69;5052160;28;20053;-75
2022/01/17 07:24:30;;;;;;;24.08;15.52;;;;;;;2.62;79.01;98098.06;5052174;28;20511;-76
2022/01/17 07:26:58;;;;;;;22.60;15.48;;;;;;;2.61;79.33;98106.72;5051933;28;20041;-75
2022/01/17 07:29:26;;;;;;;26.38;16.60;;;;;;;2.61;79.71;98127.34;5052557;28;20049;-76
2022/01/17 07:31:54;;;;;;;26.30;16.83;;;;;;;2.63;79.39;98130.66;5052248;28;20045;-78
2022/01/17 07:34:23;;;;;;;24.52;16.05;;;;;;;2.65;79.50;98113.34;5052262;28;20063;-77
2022/01/17 07:36:51;;;;;;;23.65;15.73;;;;;;;2.66;79.39;98102.94;5052024;28;20052;-77
2022/01/17 07:39:18;;;;;;;24.85;15.55;;;;;;;2.68;79.24;98102.84;5052635;28;20052;-75
2022/01/17 07:41:46;;;;;;;22.58;15.45;;;;;;;2.68;79.60;98092.53;5052034;28;20056;-75
2022/01/17 07:44:19;;;;;;;26.45;17.02;;;;;;;2.70;80.23;98085.53;5052243;28;20052;-75
2022/01/17 07:46:54;;;;;;;26.08;16.98;;;;;;;2.73;80.32;98090.50;5051760;28;20052;-75
2022/01/17 07:49:23;;;;;;;23.60;15.00;;;;;;;2.76;80.19;98087.75;5056332;28;20507;-76
2022/01/17 07:51:56;;;;;;;25.30;15.38;;;;;;;2.77;80.13;98088.56;5056316;28;20045;-75
2022/01/17 07:54:24;;;;;;;23.17;15.30;;;;;;;2.79;80.25;98097.84;5056528;28;20422;-77
2022/01/17 07:56:52;;;;;;;22.25;15.35;;;;;;;2.80;79.87;98099.50;5056004;28;20044;-75
2022/01/17 07:59:20;;;;;;;26.42;15.98;;;;;;;2.78;79.74;98108.28;5055998;28;20549;-76
2022/01/17 08:01:47;;;;;;;27.17;16.98;;;;;;;2.74;79.63;98105.03;5055634;28;20513;-75
2022/01/17 08:04:15;;;;;;;28.95;17.05;;;;;;;2.74;80.14;98119.69;5056103;28;20060;-76
2022/01/17 08:06:46;;;;;;;28.48;17.45;;;;;;;2.73;79.96;98113.69;5055887;28;20546;-75
2022/01/17 08:09:17;;;;;;;26.30;16.50;;;;;;;2.70;80.57;98103.56;5056004;28;20056;-75
2022/01/17 08:12:02;;;;;;;26.35;16.50;;;;;;;2.73;80.47;98121.41;5055745;28;20514;-76
2022/01/17 08:14:29;;;;;;;22.98;15.45;;;;;;;2.73;80.28;98110.28;5056090;28;20053;-75
2022/01/17 08:16:57;;;;;;;23.00;14.90;;;;;;;2.70;79.76;98111.31;5055781;28;20106;-75
2022/01/17 08:19:25;;;;;;;21.15;14.93;;;;;;;2.68;79.96;98113.97;5055834;28;20053;-77
2022/01/17 08:22:00;;;;;;;20.52;14.40;;;;;;;2.66;80.11;98110.66;5055435;28;20049;-77
2022/01/17 08:24:28;;;;;;;24.17;15.98;;;;;;;2.68;80.18;98105.41;5055367;28;20041;-75
2022/01/17 08:26:55;;;;;;;23.10;14.82;;;;;;;2.65;80.13;98113.34;5055497;28;20064;-75
2022/01/17 08:29:25;;;;;;;24.35;15.30;;;;;;;2.64;80.24;98122.81;5055782;28;20049;-77
2022/01/17 08:31:52;;;;;;;24.30;14.45;;;;;;;2.66;80.63;98130.44;5055838;28;20052;-76
2022/01/17 08:34:20;;;;;;;24.35;14.93;;;;;;;2.71;81.07;98118.09;5055581;28;20053;-76
2022/01/17 08:36:48;;;;;;;24.92;16.20;;;;;;;2.73;80.75;98103.38;5055111;28;20048;-77
2022/01/17 08:39:17;;;;;;;22.88;15.80;;;;;;;2.76;81.44;98089.50;5055497;28;20057;-77
2022/01/17 08:41:47;;;;;;;21.52;14.40;;;;;;;2.81;81.10;98082.28;5055046;28;20537;-75
2022/01/17 08:44:15;;;;;;;20.55;14.98;;;;;;;2.85;80.78;98089.72;5055515;28;20419;-75
2022/01/17 08:46:43;;;;;;;22.17;14.02;;;;;;;2.88;80.95;98088.72;5055179;28;20056;-75
2022/01/17 08:49:11;;;;;;;24.23;15.52;;;;;;;2.88;80.19;98089.53;5055610;28;20098;-76
2022/01/17 08:51:45;;;;;;;23.05;15.18;;;;;;;2.91;80.92;98098.00;5055846;28;20053;-77
2022/01/17 08:54:13;;;;;;;19.42;13.23;;;;;;;2.91;80.79;98110.88;5055251;28;20126;-76
2022/01/17 08:56:42;;;;;;;20.65;13.73;;;;;;;2.93;80.35;98121.91;5054766;28;20053;-75
2022/01/17 08:59:10;;;;;;;20.15;13.55;;;;;;;2.94;80.49;98139.06;5053933;28;20513;-76
2022/01/17 09:01:37;;;;;;;19.75;13.30;;;;;;;2.98;80.66;98140.53;5055054;28;20057;-76
2022/01/17 09:04:05;;;;;;;18.38;12.88;;;;;;;3.02;80.47;98139.41;5055201;28;20048;-77
2022/01/17 09:06:33;;;;;;;20.33;13.27;;;;;;;3.07;81.02;98148.50;5054884;28;20052;-75
2022/01/17 09:09:00;;;;;;;25.70;14.68;;;;;;;3.09;80.64;98138.09;5054849;28;20088;-75
2022/01/17 09:11:28;;;;;;;21.35;13.88;;;;;;;3.10;81.04;98139.72;5054480;28;20055;-75
2022/01/17 09:13:57;;;;;;;21.88;13.25;;;;;;;3.11;81.27;98131.09;5055056;28;20274;-75
2022/01/17 09:16:25;;;;;;;15.50;11.50;;;;;;;3.16;80.78;98120.47;5054573;28;20049;-75
2022/01/17 09:18:52;;;;;;;19.45;11.80;;;;;;;3.19;80.36;98115.13;5054433;28;20053;-75
2022/01/17 09:21:20;;;;;;;15.95;11.20;;;;;;;3.20;80.49;98122.75;5054582;28;20060;-76
2022/01/17 09:23:49;;;;;;;17.10;12.00;;;;;;;3.24;80.48;98126.81;5054395;28;20063;-77
2022/01/17 09:26:18;;;;;;;18.10;12.43;;;;;;;3.29;79.87;98140.22;5053985;28;20052;-76
2022/01/17 09:28:47;;;;;;;18.85;12.27;;;;;;;3.35;80.28;98151.91;5054176;28;20049;-75
2022/01/17 09:31:16;;;;;;;19.45;12.82;;;;;;;3.38;80.50;98158.63;5054254;28;20053;-76
2022/01/17 09:33:44;;;;;;;16.85;9.90;;;;;;;3.39;79.70;98165.41;5054487;28;20095;-76
2022/01/17 09:36:12;;;;;;;15.27;10.55;;;;;;;3.39;79.56;98166.28;5053727;28;20049;-76
2022/01/17 09:38:39;;;;;;;14.90;10.02;;;;;;;3.40;80.00;98157.59;5053903;28;20499;-75
2022/01/17 09:41:07;;;;;;;16.80;10.88;;;;;;;3.42;79.42;98165.25;5053951;28;20457;-75
2022/01/17 09:43:45;;;;;;;11.57;8.93;;;;;;;3.44;79.52;98178.88;5053816;28;20044;-75
2022/01/17 09:46:14;;;;;;;16.13;9.90;;;;;;;3.44;78.88;98165.97;5053784;28;20091;-75
2022/01/17 09:48:48;;;;;;;13.70;10.02;;;;;;;3.47;79.72;98173.50;5053705;28;20068;-76
2022/01/17 09:51:30;;;;;;;13.35;9.30;;;;;;;3.49;80.06;98185.38;5053637;28;20059;-76
2022/01/17 09:54:00;;;;;;;12.52;9.05;;;;;;;3.51;79.05;98172.38;5053529;28;20049;-76
2022/01/17 09:56:29;;;;;;;15.35;9.32;;;;;;;3.50;79.34;98193.97;5053486;28;20045;-75
2022/01/17 09:58:58;;;;;;;14.05;8.63;;;;;;;3.48;78.99;98206.13;5053576;28;20045;-75
2022/01/17 10:01:26;;;;;;;13.65;9.18;;;;;;;3.47;79.04;98194.13;5053589;28;20056;-75
2022/01/17 10:03:56;;;;;;;13.63;9.07;;;;;;;3.46;79.08;98203.63;5053617;28;20418;-75
2022/01/17 10:06:25;;;;;;;13.85;9.65;;;;;;;3.47;79.65;98199.31;5053271;28;20071;-75
2022/01/17 10:09:11;;;;;;;17.48;10.15;;;;;;;3.46;79.83;98189.91;5053162;28;20127;-75
2022/01/17 10:11:59;;;;;;;16.83;9.65;;;;;;;3.42;80.27;98207.34;5053002;28;20059;-75
2022/01/17 10:14:29;;;;;;;14.63;9.65;;;;;;;3.41;80.39;98212.59;5053527;28;20060;-75
2022/01/17 10:16:56;;;;;;;12.68;9.25;;;;;;;3.40;80.23;98187.72;5052891;28;20053;-75
2022/01/17 10:19:26;;;;;;;15.65;10.30;;;;;;;3.41;80.33;98190.22;5053515;28;20049;-75
2022/01/17 10:21:58;;;;;;;15.93;10.43;;;;;;;3.39;80.83;98194.66;5053340;28;20051;-75
2022/01/17 10:24:35;;;;;;;17.08;12.60;;;;;;;3.37;80.21;98193.91;5053338;28;20052;-75
2022/01/17 10:27:19;;;;;;;15.85;10.52;;;;;;;3.35;80.68;98188.03;5052962;28;20052;-76
2022/01/17 10:35:22;;;;;;;18.08;11.70;;;;;;;3.31;80.44;98168.50;5053168;28;20053;-75
2022/01/17 10:38:01;;;;;;;18.13;11.65;;;;;;;3.27;80.24;98167.84;5052722;28;20052;-76
2022/01/17 10:40:31;;;;;;;17.15;12.85;;;;;;;3.26;80.74;98166.22;5053302;28;20491;-75
2022/01/17 10:43:00;;;;;;;16.98;12.57;;;;;;;3.27;80.86;98173.03;5052965;28;20053;-75
2022/01/17 10:45:33;;;;;;;18.30;12.40;;;;;;;3.29;80.77;98186.66;5053915;28;20658;-76
2022/01/17 10:48:02;;;;;;;17.33;12.80;;;;;;;3.32;80.93;98192.53;5053352;28;20044;-75
2022/01/17 10:50:34;;;;;;;18.25;13.50;;;;;;;3.34;81.06;98195.84;5052969;28;20057;-75
2022/01/17 10:53:05;;;;;;;18.85;12.05;;;;;;;3.36;80.62;98191.41;5052823;28;20045;-75
2022/01/17 10:55:34;;;;;;;17.20;12.10;;;;;;;3.39;81.05;98186.06;5053335;28;20053;-75
2022/01/17 10:58:04;;;;;;;17.60;12.48;;;;;;;3.44;80.93;98194.34;5053109;28;20049;-76
2022/01/17 11:00:34;;;;;;;15.77;11.02;;;;;;;3.47;80.91;98194.97;5052717;28;20152;-75
2022/01/17 11:03:03;;;;;;;14.18;10.90;;;;;;;3.49;80.82;98202.63;5052980;28;20049;-75
2022/01/17 11:05:33;;;;;;;14.82;11.27;;;;;;;3.50;80.60;98204.28;5052809;28;20051;-75
2022/01/17 11:08:02;;;;;;;18.63;12.38;;;;;;;3.53;80.42;98192.94;5057874;28;20049;-76
2022/01/17 11:10:32;;;;;;;14.98;10.55;;;;;;;3.50;80.42;98194.78;5064026;28;20053;-75
2022/01/17 11:13:04;;;;;;;15.45;10.90;;;;;;;3.49;80.74;98203.44;5066964;28;20048;-76
2022/01/17 11:15:33;;;;;;;15.13;11.33;;;;;;;3.51;80.56;98200.75;5067717;28;20052;-76
2022/01/17 11:18:05;;;;;;;16.98;11.20;;;;;;;3.54;80.90;98202.31;5067952;28;20048;-75
2022/01/17 11:20:35;;;;;;;12.52;9.25;;;;;;;3.55;80.85;98204.81;5067766;28;20080;-76
2022/01/17 11:23:03;;;;;;;14.82;10.30;;;;;;;3.58;80.56;98216.69;5068978;28;20037;-75
2022/01/17 11:25:35;;;;;;;13.43;9.68;;;;;;;3.59;80.21;98224.34;5067667;28;20045;-76
2022/01/17 11:28:05;;;;;;;12.98;9.60;;;;;;;3.59;79.93;98218.34;5057029;28;20052;-75
2022/01/17 11:30:34;;;;;;;12.98;9.50;;;;;;;3.58;80.70;98212.34;5053270;28;20426;-75
2022/01/17 11:33:04;;;;;;;14.27;9.23;;;;;;;3.57;80.41;98199.56;5052920;28;20048;-75
2022/01/17 11:35:34;;;;;;;13.45;9.15;;;;;;;3.56;80.35;98198.72;5052603;28;20404;-76
2022/01/17 11:38:04;;;;;;;14.15;9.45;;;;;;;3.56;80.47;98203.88;5051959;28;20049;-75
2022/01/17 11:40:34;;;;;;;13.88;8.88;;;;;;;3.58;80.31;98202.03;5052579;28;20057;-75
2022/01/17 11:43:15;;;;;;;12.93;9.43;;;;;;;3.56;80.26;98198.72;5062965;28;20055;-75
2022/01/17 11:45:42;;;;;;;13.95;9.95;;;;;;;3.55;80.44;98186.75;5062697;28;20049;-76
2022/01/17 11:48:22;;;;;;;13.65;9.05;;;;;;;3.52;80.65;98192.13;5061983;28;20059;-76
2022/01/17 11:50:54;;;;;;;13.13;9.93;;;;;;;3.48;80.39;98181.16;5057399;28;20438;-75